Time;durP1;ratioP1;P1;durP2;ratioP2;P2;SDS_P1;SDS_P2;PMS_P1;PMS_P2;Temp;Humidity;BMP_temperature;BMP_pressure;BME280_temperature;BME280_humidity;BME280_pressure;Samples;Min_cycle;Max_cycle;Signal;HPM_P1;HPM_P2
2024/03/27 00:00:28;;;;;;;;;;;;;;;;;;5023631;28;4732;-65
2024/03/27 00:02:53;;;;;;;;;;;;;;;;;;5020794;28;5099;-65
2024/03/27 00:05:19;;;;;;;;;;;;;;;;;;5025464;28;3326;-66
2024/03/27 00:07:44;;;;;;;;;;;;;;;;;;5019486;28;4611;-66
2024/03/27 00:10:09;;;;;;;;;;;;;;;;;;5021467;28;5117;-66
2024/03/27 00:12:35;;;;;;;;;;;;;;;;;;5020431;28;5135;-66
2024/03/27 00:15:01;;;;;;;;;;;;;;;;;;5024045;28;5189;-66
2024/03/27 00:17:27;;;;;;;;;;;;;;;;;;5021562;28;3266;-66
2024/03/27 00:19:52;;;;;;;;;;;;;;;;;;5026438;28;4461;-65
2024/03/27 00:22:17;;;;;;;;;;;;;;;;;;5027705;28;5565;-63
2024/03/27 00:24:43;;;;;;;;;;;;;;;;;;5032047;28;4672;-66
2024/03/27 00:27:08;;;;;;;;;;;;;;;;;;5019200;28;4984;-65
2024/03/27 00:29:33;;;;;;;;;;;;;;;;;;5030946;28;1231;-66
2024/03/27 00:31:59;;;;;;;;;;;;;;;;;;5027691;28;4712;-67
2024/03/27 00:34:24;;;;;;;;;;;;;;;;;;5021653;28;4449;-65
2024/03/27 00:36:49;;;;;;;;;;;;;;;;;;5027116;28;4496;-65
2024/03/27 00:39:15;;;;;;;;;;;;;;;;;;5024404;28;5142;-62
2024/03/27 00:41:40;;;;;;;;;;;;;;;;;;5025729;28;4990;-64
2024/03/27 00:44:05;;;;;;;;;;;;;;;;;;5021619;28;3376;-67
2024/03/27 00:46:31;;;;;;;;;;;;;;;;;;5017479;28;4673;-65
2024/03/27 00:48:56;;;;;;;;;;;;;;;;;;5029082;28;5182;-67
2024/03/27 00:51:22;;;;;;;;;;;;;;;;;;5028432;28;5056;-66
2024/03/27 00:53:47;;;;;;;;;;;;;;;;;;5021181;28;4927;-65
2024/03/27 00:56:12;;;;;;;;;;;;;;;;;;5021118;28;1926;-65
2024/03/27 00:58:38;;;;;;;;;;;;;;;;;;5027110;28;4467;-66
2024/03/27 01:01:03;;;;;;;;;;;;;;;;;;5019541;28;5103;-65
2024/03/27 01:03:29;;;;;;;;;;;;;;;;;;5034935;28;4537;-66
2024/03/27 01:05:55;;;;;;;;;;;;;;;;;;5027003;28;5049;-65
2024/03/27 01:08:20;;;;;;;;;;;;;;;;;;5020650;28;3282;-66
2024/03/27 01:10:46;;;;;;;;;;;;;;;;;;5026870;28;5085;-63
2024/03/27 01:13:17;;;;;;;;;;;;;;;;;;5030860;28;5144;-65
2024/03/27 01:15:47;;;;;;;;;;;;;;;;;;5026744;28;4810;-64
2024/03/27 01:18:13;;;;;;;;;;;;;;;;;;5015686;28;4617;-65
2024/03/27 01:20:38;;;;;;;;;;;;;;;;;;5023976;28;5143;-66
2024/03/27 01:23:03;;;;;;;;;;;;;;;;;;5026925;28;3287;-66
2024/03/27 01:25:29;;;;;;;;;;;;;;;;;;5024248;28;4506;-65
2024/03/27 01:27:54;;;;;;;;;;;;;;;;;;5029432;28;4479;-66
2024/03/27 01:30:19;;;;;;;;;;;;;;;;;;5022719;28;5366;-66
2024/03/27 01:32:45;;;;;;;;;;;;;;;;;;5026950;28;4582;-65
2024/03/27 01:35:10;;;;;;;;;;;;;;;;;;5019833;28;3496;-66
2024/03/27 01:37:36;;;;;;;;;;;;;;;;;;5019318;28;5071;-64
2024/03/27 01:40:01;;;;;;;;;;;;;;;;;;5024779;28;4667;-65
2024/03/27 01:42:26;;;;;;;;;;;;;;;;;;5029237;28;4950;-65
2024/03/27 01:44:52;;;;;;;;;;;;;;;;;;5026588;28;4633;-66
2024/03/27 01:47:17;;;;;;;;;;;;;;;;;;5022696;28;3025;-66
2024/03/27 01:49:43;;;;;;;;;;;;;;;;;;5028984;28;5228;-64
2024/03/27 01:52:09;;;;;;;;;;;;;;;;;;5019791;28;5031;-66
2024/03/27 01:54:34;;;;;;;;;;;;;;;;;;5031130;28;4981;-65
2024/03/27 01:57:00;;;;;;;;;;;;;;;;;;5023364;28;5018;-66
2024/03/27 01:59:25;;;;;;;;;;;;;;;;;;5027307;28;1420;-65
2024/03/27 02:01:51;;;;;;;;;;;;;;;;;;5033688;28;4490;-65
2024/03/27 02:04:16;;;;;;;;;;;;;;;;;;5018726;28;4588;-64
2024/03/27 02:06:41;;;;;;;;;;;;;;;;;;5020476;28;4530;-65
2024/03/27 02:09:07;;;;;;;;;;;;;;;;;;5018129;28;5164;-65
2024/03/27 02:11:32;;;;;;;;;;;;;;;;;;5026878;28;3289;-65
2024/03/27 02:13:58;;;;;;;;;;;;;;;;;;5023411;28;4999;-65
2024/03/27 02:16:23;;;;;;;;;;;;;;;;;;5025418;28;5148;-65
2024/03/27 02:18:48;;;;;;;;;;;;;;;;;;5025049;28;4541;-65
2024/03/27 02:21:14;;;;;;;;;;;;;;;;;;5024724;28;5198;-65
2024/03/27 02:23:48;;;;;;;;;;;;;;;;;;5023155;28;5132;-65
2024/03/27 02:26:17;;;;;;;;;;;;;;;;;;5043136;28;3267;-65
2024/03/27 02:28:45;;;;;;;;;;;;;;;;;;5027075;28;4870;-65
2024/03/27 02:31:10;;;;;;;;;;;;;;;;;;5029006;28;4695;-66
2024/03/27 02:33:36;;;;;;;;;;;;;;;;;;5027685;28;4607;-66
2024/03/27 02:36:01;;;;;;;;;;;;;;;;;;5018115;28;5355;-65
2024/03/27 02:38:27;;;;;;;;;;;;;;;;;;5017276;28;3342;-65
2024/03/27 02:40:55;;;;;;;;;;;;;;;;;;5024226;28;5167;-65
2024/03/27 02:43:20;;;;;;;;;;;;;;;;;;5024289;28;5102;-66
2024/03/27 02:45:46;;;;;;;;;;;;;;;;;;5022781;28;5342;-66
2024/03/27 02:48:12;;;;;;;;;;;;;;;;;;5018677;28;5071;-65
2024/03/27 02:50:37;;;;;;;;;;;;;;;;;;5024230;28;4497;-65
2024/03/27 02:53:03;;;;;;;;;;;;;;;;;;5027338;28;2886;-65
2024/03/27 02:55:28;;;;;;;;;;;;;;;;;;5027330;28;5279;-65
2024/03/27 02:57:53;;;;;;;;;;;;;;;;;;5040996;28;4599;-64
2024/03/27 03:00:19;;;;;;;;;;;;;;;;;;5029479;28;5142;-66
2024/03/27 03:02:44;;;;;;;;;;;;;;;;;;5026312;28;5262;-66
2024/03/27 03:05:10;;;;;;;;;;;;;;;;;;5026823;28;1314;-65
2024/03/27 03:07:35;;;;;;;;;;;;;;;;;;5020079;28;4496;-65
2024/03/27 03:10:01;;;;;;;;;;;;;;;;;;5026636;28;5180;-65
2024/03/27 03:12:26;;;;;;;;;;;;;;;;;;5026301;28;5192;-66
2024/03/27 03:14:52;;;;;;;;;;;;;;;;;;5014518;28;4534;-65
2024/03/27 03:17:17;;;;;;;;;;;;;;;;;;5026755;28;3234;-65
2024/03/27 03:19:42;;;;;;;;;;;;;;;;;;5023397;28;4453;-65
2024/03/27 03:22:10;;;;;;;;;;;;;;;;;;5017783;28;4551;-65
2024/03/27 03:24:36;;;;;;;;;;;;;;;;;;5027701;28;4714;-65
2024/03/27 03:27:01;;;;;;;;;;;;;;;;;;5020014;28;5177;-66
2024/03/27 03:29:26;;;;;;;;;;;;;;;;;;5022149;28;3522;-66
2024/03/27 03:31:52;;;;;;;;;;;;;;;;;;5027580;28;4432;-65
2024/03/27 03:34:17;;;;;;;;;;;;;;;;;;5027776;28;4840;-65
2024/03/27 03:36:43;;;;;;;;;;;;;;;;;;5019693;28;5160;-64
2024/03/27 03:39:08;;;;;;;;;;;;;;;;;;5025951;28;5132;-65
2024/03/27 03:41:33;;;;;;;;;;;;;;;;;;5014881;28;1121;-66
2024/03/27 03:43:59;;;;;;;;;;;;;;;;;;5022427;28;4415;-65
2024/03/27 03:46:24;;;;;;;;;;;;;;;;;;5014326;28;4929;-66
2024/03/27 03:48:50;;;;;;;;;;;;;;;;;;5015372;28;4726;-66
2024/03/27 03:51:15;;;;;;;;;;;;;;;;;;5024749;28;5061;-66
2024/03/27 03:53:40;;;;;;;;;;;;;;;;;;5024377;28;4968;-66
2024/03/27 03:56:06;;;;;;;;;;;;;;;;;;5021909;28;3330;-66
2024/03/27 03:58:31;;;;;;;;;;;;;;;;;;5031505;28;4719;-66
2024/03/27 04:00:56;;;;;;;;;;;;;;;;;;5030806;28;4655;-66
2024/03/27 04:03:22;;;;;;;;;;;;;;;;;;5027243;28;5619;-67
2024/03/27 04:05:47;;;;;;;;;;;;;;;;;;5027947;28;5109;-66
2024/03/27 04:08:12;;;;;;;;;;;;;;;;;;5021289;28;3338;-66
2024/03/27 04:10:41;;;;;;;;;;;;;;;;;;5029631;28;4665;-65
2024/03/27 04:13:07;;;;;;;;;;;;;;;;;;5026107;28;4868;-65
2024/03/27 04:15:32;;;;;;;;;;;;;;;;;;5035448;28;4586;-66
2024/03/27 04:17:57;;;;;;;;;;;;;;;;;;5027258;28;5080;-65
2024/03/27 04:20:23;;;;;;;;;;;;;;;;;;5022705;28;3275;-65
2024/03/27 04:22:48;;;;;;;;;;;;;;;;;;5025360;28;4460;-64
2024/03/27 04:25:13;;;;;;;;;;;;;;;;;;5020472;28;4549;-65
2024/03/27 04:27:39;;;;;;;;;;;;;;;;;;5030394;28;4669;-66
2024/03/27 04:30:04;;;;;;;;;;;;;;;;;;5022883;28;4662;-66
2024/03/27 04:32:30;;;;;;;;;;;;;;;;;;5026604;28;3585;-65
2024/03/27 04:34:55;;;;;;;;;;;;;;;;;;5029856;28;4431;-66
2024/03/27 04:37:21;;;;;;;;;;;;;;;;;;5024760;28;4667;-65
2024/03/27 04:39:46;;;;;;;;;;;;;;;;;;5025840;28;4778;-66
2024/03/27 04:42:12;;;;;;;;;;;;;;;;;;5020937;28;4685;-65
2024/03/27 04:44:40;;;;;;;;;;;;;;;;;;5024550;28;4597;-65
2024/03/27 04:47:05;;;;;;;;;;;;;;;;;;5033275;28;2042;-66
2024/03/27 04:49:31;;;;;;;;;;;;;;;;;;5024805;28;5074;-65
2024/03/27 04:51:56;;;;;;;;;;;;;;;;;;5031292;28;5024;-65
2024/03/27 04:54:22;;;;;;;;;;;;;;;;;;5026016;28;5006;-66
2024/03/27 04:56:47;;;;;;;;;;;;;;;;;;5017414;28;5035;-66
2024/03/27 04:59:13;;;;;;;;;;;;;;;;;;5025591;28;3756;-65
2024/03/27 05:01:38;;;;;;;;;;;;;;;;;;5028651;28;4898;-65
2024/03/27 05:04:03;;;;;;;;;;;;;;;;;;5027204;28;5075;-65
2024/03/27 05:06:29;;;;;;;;;;;;;;;;;;5025233;28;4520;-65
2024/03/27 05:08:54;;;;;;;;;;;;;;;;;;5025792;28;4529;-65
2024/03/27 05:11:19;;;;;;;;;;;;;;;;;;5022347;28;3602;-65
2024/03/27 05:13:45;;;;;;;;;;;;;;;;;;5029779;28;4842;-65
2024/03/27 05:16:12;;;;;;;;;;;;;;;;;;5033524;28;5106;-65
2024/03/27 05:18:38;;;;;;;;;;;;;;;;;;5024601;28;4971;-65
2024/03/27 05:21:03;;;;;;;;;;;;;;;;;;5027748;28;5315;-65
2024/03/27 05:23:29;;;;;;;;;;;;;;;;;;5029431;28;3501;-65
2024/03/27 05:25:55;;;;;;;;;;;;;;;;;;5036721;28;5023;-65
2024/03/27 05:28:20;;;;;;;;;;;;;;;;;;5026380;28;4582;-65
2024/03/27 05:30:46;;;;;;;;;;;;;;;;;;5032027;28;5093;-65
2024/03/27 05:33:11;;;;;;;;;;;;;;;;;;5024340;28;5135;-64
2024/03/27 05:35:37;;;;;;;;;;;;;;;;;;5026507;28;4694;-65
2024/03/27 05:38:02;;;;;;;;;;;;;;;;;;5023183;28;1910;-64
2024/03/27 05:40:28;;;;;;;;;;;;;;;;;;5022996;28;4508;-65
2024/03/27 05:42:53;;;;;;;;;;;;;;;;;;5021807;28;4542;-65
2024/03/27 05:45:18;;;;;;;;;;;;;;;;;;5031050;28;4758;-64
2024/03/27 05:47:44;;;;;;;;;;;;;;;;;;5028624;28;4498;-66
2024/03/27 05:50:09;;;;;;;;;;;;;;;;;;5025515;28;3739;-66
2024/03/27 05:52:35;;;;;;;;;;;;;;;;;;5023628;28;4828;-65
2024/03/27 05:55:00;;;;;;;;;;;;;;;;;;5033223;28;4588;-66
2024/03/27 05:57:26;;;;;;;;;;;;;;;;;;5022056;28;4622;-65
2024/03/27 05:59:51;;;;;;;;;;;;;;;;;;5024127;28;5098;-65
2024/03/27 06:02:17;;;;;;;;;;;;;;;;;;5025435;28;3241;-64
2024/03/27 06:04:42;;;;;;;;;;;;;;;;;;5028966;28;4455;-64
2024/03/27 06:07:07;;;;;;;;;;;;;;;;;;5024145;28;4979;-65
2024/03/27 06:09:34;;;;;;;;;;;;;;;;;;5025163;28;5084;-70
2024/03/27 06:11:59;;;;;;;;;;;;;;;;;;5023315;28;4935;-59
2024/03/27 06:14:24;;;;;;;;;;;;;;;;;;5027403;28;3341;-67
2024/03/27 06:16:50;;;;;;;;;;;;;;;;;;5026822;28;5083;-64
2024/03/27 06:19:16;;;;;;;;;;;;;;;;;;5022414;28;4471;-72
2024/03/27 06:21:42;;;;;;;;;;;;;;;;;;5028106;28;5324;-64
2024/03/27 06:24:07;;;;;;;;;;;;;;;;;;5018025;28;5170;-61
2024/03/27 06:26:34;;;;;;;;;;;;;;;;;;5016679;28;3395;-61
2024/03/27 06:29:00;;;;;;;;;;;;;;;;;;5024089;28;5026;-59
2024/03/27 06:31:25;;;;;;;;;;;;;;;;;;5024646;28;4472;-59
2024/03/27 06:33:51;;;;;;;;;;;;;;;;;;5025435;28;5114;-62
2024/03/27 06:36:17;;;;;;;;;;;;;;;;;;5019473;28;4947;-59
2024/03/27 06:38:42;;;;;;;;;;;;;;;;;;5020573;28;5095;-60
2024/03/27 06:41:07;;;;;;;;;;;;;;;;;;5020117;28;3254;-61
2024/03/27 06:43:33;;;;;;;;;;;;;;;;;;5023032;28;5137;-61
2024/03/27 06:45:58;;;;;;;;;;;;;;;;;;5022262;28;4978;-58
2024/03/27 06:48:24;;;;;;;;;;;;;;;;;;5016889;28;5133;-59
2024/03/27 06:50:52;;;;;;;;;;;;;;;;;;5027142;28;4486;-59
2024/03/27 06:53:18;;;;;;;;;;;;;;;;;;5021223;28;3320;-59
2024/03/27 06:55:43;;;;;;;;;;;;;;;;;;5021679;28;5008;-59
2024/03/27 06:58:08;;;;;;;;;;;;;;;;;;5017028;28;5147;-60
2024/03/27 07:00:34;;;;;;;;;;;;;;;;;;5014736;28;4538;-62
2024/03/27 07:02:59;;;;;;;;;;;;;;;;;;5021804;28;5087;-66
2024/03/27 07:05:24;;;;;;;;;;;;;;;;;;5023413;28;3618;-64
2024/03/27 07:07:50;;;;;;;;;;;;;;;;;;5019603;28;4636;-64
2024/03/27 07:10:15;;;;;;;;;;;;;;;;;;5019026;28;4727;-61
2024/03/27 07:12:40;;;;;;;;;;;;;;;;;;5041019;28;4531;-61
2024/03/27 07:15:06;;;;;;;;;;;;;;;;;;5020346;28;4583;-60
2024/03/27 07:17:32;;;;;;;;;;;;;;;;;;5017461;28;3400;-59
2024/03/27 07:19:57;;;;;;;;;;;;;;;;;;5023114;28;4571;-63
2024/03/27 07:22:22;;;;;;;;;;;;;;;;;;5020005;28;5174;-63
2024/03/27 07:24:51;;;;;;;;;;;;;;;;;;5023294;28;4507;-61
2024/03/27 07:27:16;;;;;;;;;;;;;;;;;;5023688;28;5062;-61
2024/03/27 07:29:41;;;;;;;;;;;;;;;;;;5027420;28;4535;-60
2024/03/27 07:32:07;;;;;;;;;;;;;;;;;;5027368;28;3253;-59
2024/03/27 07:34:32;;;;;;;;;;;;;;;;;;5028792;28;4807;-60
2024/03/27 07:36:58;;;;;;;;;;;;;;;;;;5022414;28;5033;-59
2024/03/27 07:39:23;;;;;;;;;;;;;;;;;;5024634;28;5116;-59
2024/03/27 07:41:49;;;;;;;;;;;;;;;;;;5029998;28;4485;-59
2024/03/27 07:44:14;;;;;;;;;;;;;;;;;;5027251;28;3394;-62
2024/03/27 07:46:40;;;;;;;;;;;;;;;;;;5032014;28;4953;-60
2024/03/27 07:49:05;;;;;;;;;;;;;;;;;;5027274;28;5053;-61
2024/03/27 07:51:31;;;;;;;;;;;;;;;;;;5018627;28;4686;-60
2024/03/27 07:53:56;;;;;;;;;;;;;;;;;;5020649;28;4707;-61
2024/03/27 07:56:23;;;;;;;;;;;;;;;;;;5027284;28;3371;-61
2024/03/27 07:58:48;;;;;;;;;;;;;;;;;;5025119;28;5181;-59
2024/03/27 08:01:13;;;;;;;;;;;;;;;;;;5021534;28;4925;-59
2024/03/27 08:03:39;;;;;;;;;;;;;;;;;;5030782;28;5106;-61
2024/03/27 08:06:04;;;;;;;;;;;;;;;;;;5035509;28;4522;-60
2024/03/27 08:08:29;;;;;;;;;;;;;;;;;;5022989;28;3487;-61
2024/03/27 08:10:55;;;;;;;;;;;;;;;;;;5022635;28;4615;-59
2024/03/27 08:13:21;;;;;;;;;;;;;;;;;;5027536;28;4706;-59
2024/03/27 08:15:46;;;;;;;;;;;;;;;;;;5026271;28;5210;-57
2024/03/27 08:18:11;;;;;;;;;;;;;;;;;;5020938;28;5208;-57
2024/03/27 08:20:37;;;;;;;;;;;;;;;;;;5021103;28;4524;-58
2024/03/27 08:23:02;;;;;;;;;;;;;;;;;;5023292;28;3341;-57
2024/03/27 08:25:32;;;;;;;;;;;;;;;;;;5026188;28;4470;-57
2024/03/27 08:27:58;;;;;;;;;;;;;;;;;;5028471;28;4886;-57
2024/03/27 08:30:23;;;;;;;;;;;;;;;;;;5029592;28;4574;-57
2024/03/27 08:32:49;;;;;;;;;;;;;;;;;;5027521;28;4556;-57
2024/03/27 08:35:14;;;;;;;;;;;;;;;;;;5025397;28;1275;-57
2024/03/27 08:37:39;;;;;;;;;;;;;;;;;;5029349;28;5031;-57
2024/03/27 08:40:06;;;;;;;;;;;;;;;;;;5020820;28;4904;-57
2024/03/27 08:42:31;;;;;;;;;;;;;;;;;;5028580;28;5025;-57
2024/03/27 08:44:58;;;;;;;;;;;;;;;;;;5028878;28;4537;-57
2024/03/27 08:47:25;;;;;;;;;;;;;;;;;;5027647;28;1639;-57
2024/03/27 08:49:50;;;;;;;;;;;;;;;;;;5029971;28;4541;-58
2024/03/27 08:52:15;;;;;;;;;;;;;;;;;;5029868;28;5084;-57
2024/03/27 08:54:41;;;;;;;;;;;;;;;;;;5021510;28;5235;-57
2024/03/27 08:57:07;;;;;;;;;;;;;;;;;;5028401;28;5135;-57
2024/03/27 08:59:33;;;;;;;;;;;;;;;;;;5029759;28;1207;-58
2024/03/27 09:01:58;;;;;;;;;;;;;;;;;;5028968;28;5192;-57
2024/03/27 09:04:23;;;;;;;;;;;;;;;;;;5019553;28;5107;-56
2024/03/27 09:06:48;;;;;;;;;;;;;;;;;;5022954;28;5079;-56
2024/03/27 09:09:14;;;;;;;;;;;;;;;;;;5017041;28;5154;-56
2024/03/27 09:11:40;;;;;;;;;;;;;;;;;;5013600;28;4719;-57
2024/03/27 09:14:05;;;;;;;;;;;;;;;;;;5026288;28;1040;-56
2024/03/27 09:16:31;;;;;;;;;;;;;;;;;;5028541;28;4710;-57
2024/03/27 09:18:56;;;;;;;;;;;;;;;;;;5018317;28;5072;-56
2024/03/27 09:21:22;;;;;;;;;;;;;;;;;;5022491;28;5035;-56
2024/03/27 09:23:47;;;;;;;;;;;;;;;;;;5019087;28;5171;-58
2024/03/27 09:26:12;;;;;;;;;;;;;;;;;;5022560;28;1191;-56
2024/03/27 09:28:38;;;;;;;;;;;;;;;;;;5028169;28;5173;-57
2024/03/27 09:31:03;;;;;;;;;;;;;;;;;;5025699;28;4733;-56
2024/03/27 09:33:29;;;;;;;;;;;;;;;;;;5025806;28;4464;-56
2024/03/27 09:35:54;;;;;;;;;;;;;;;;;;5019121;28;4608;-57
2024/03/27 09:38:19;;;;;;;;;;;;;;;;;;5025016;28;2258;-57
2024/03/27 09:40:45;;;;;;;;;;;;;;;;;;5024720;28;5539;-56
2024/03/27 09:43:10;;;;;;;;;;;;;;;;;;5028787;28;4530;-56
2024/03/27 09:45:36;;;;;;;;;;;;;;;;;;5020049;28;4777;-56
2024/03/27 09:48:02;;;;;;;;;;;;;;;;;;5025668;28;5184;-56
2024/03/27 09:50:28;;;;;;;;;;;;;;;;;;5021171;28;3292;-56
2024/03/27 09:52:54;;;;;;;;;;;;;;;;;;5025070;28;5024;-57
2024/03/27 09:55:19;;;;;;;;;;;;;;;;;;5026792;28;4632;-56
2024/03/27 09:57:45;;;;;;;;;;;;;;;;;;5018745;28;5169;-61
2024/03/27 10:00:10;;;;;;;;;;;;;;;;;;5022756;28;4578;-61
2024/03/27 10:02:36;;;;;;;;;;;;;;;;;;5020212;28;3729;-61
2024/03/27 10:05:01;;;;;;;;;;;;;;;;;;5022081;28;4997;-61
2024/03/27 10:07:26;;;;;;;;;;;;;;;;;;5026267;28;4641;-60
2024/03/27 10:09:53;;;;;;;;;;;;;;;;;;5023101;28;5207;-62
2024/03/27 10:12:18;;;;;;;;;;;;;;;;;;5025650;28;5087;-61
2024/03/27 10:14:44;;;;;;;;;;;;;;;;;;5024428;28;4767;-60
2024/03/27 10:17:10;;;;;;;;;;;;;;;;;;5027978;28;3415;-60
2024/03/27 10:19:35;;;;;;;;;;;;;;;;;;5029063;28;5733;-61
2024/03/27 10:22:01;;;;;;;;;;;;;;;;;;5024199;28;5040;-58
2024/03/27 10:24:26;;;;;;;;;;;;;;;;;;5021135;28;5192;-56
2024/03/27 10:26:51;;;;;;;;;;;;;;;;;;5034271;28;4760;-58
2024/03/27 10:29:17;;;;;;;;;;;;;;;;;;5023888;28;3460;-57
2024/03/27 10:31:42;;;;;;;;;;;;;;;;;;5019261;28;5032;-59
2024/03/27 10:34:08;;;;;;;;;;;;;;;;;;5022419;28;5259;-58
2024/03/27 10:36:33;;;;;;;;;;;;;;;;;;5019373;28;5113;-62
2024/03/27 10:39:00;;;;;;;;;;;;;;;;;;5037094;28;5192;-59
2024/03/27 10:41:25;;;;;;;;;;;;;;;;;;5020527;28;3544;-62
2024/03/27 10:43:53;;;;;;;;;;;;;;;;;;5020671;28;4512;-60
2024/03/27 10:46:18;;;;;;;;;;;;;;;;;;5024096;28;4591;-60
2024/03/27 10:48:45;;;;;;;;;;;;;;;;;;5027206;28;5154;-59
2024/03/27 10:51:10;;;;;;;;;;;;;;;;;;5017502;28;5091;-61
2024/03/27 10:53:36;;;;;;;;;;;;;;;;;;5032672;28;3288;-60
2024/03/27 10:56:02;;;;;;;;;;;;;;;;;;5026558;28;5062;-61
2024/03/27 10:58:27;;;;;;;;;;;;;;;;;;5020744;28;5175;-60
2024/03/27 11:00:53;;;;;;;;;;;;;;;;;;5023149;28;5144;-61
2024/03/27 11:03:19;;;;;;;;;;;;;;;;;;5015797;28;5169;-60
2024/03/27 11:05:47;;;;;;;;;;;;;;;;;;5018306;28;5066;-61
2024/03/27 11:08:12;;;;;;;;;;;;;;;;;;5023615;28;3399;-59
2024/03/27 11:10:38;;;;;;;;;;;;;;;;;;5023711;28;4641;-60
2024/03/27 11:13:03;;;;;;;;;;;;;;;;;;5027556;28;5011;-58
2024/03/27 11:15:28;;;;;;;;;;;;;;;;;;5026275;28;4682;-57
2024/03/27 11:17:54;;;;;;;;;;;;;;;;;;5035922;28;5155;-60
2024/03/27 11:20:26;;;;;;;;;;;;;;;;;;5023055;28;3798;-61
2024/03/27 11:22:54;;;;;;;;;;;;;;;;;;5021455;28;5206;-59
2024/03/27 11:25:23;;;;;;;;;;;;;;;;;;5033754;28;5076;-62
2024/03/27 11:27:48;;;;;;;;;;;;;;;;;;5023904;28;5022;-59
2024/03/27 11:30:17;;;;;;;;;;;;;;;;;;5026873;28;4955;-58
2024/03/27 11:32:42;;;;;;;;;;;;;;;;;;5015744;28;4612;-59
2024/03/27 11:35:08;;;;;;;;;;;;;;;;;;5036982;28;3532;-58
2024/03/27 11:37:35;;;;;;;;;;;;;;;;;;5025803;28;5473;-60
2024/03/27 11:40:00;;;;;;;;;;;;;;;;;;5017942;28;5273;-61
2024/03/27 11:42:28;;;;;;;;;;;;;;;;;;5025128;28;5032;-59
2024/03/27 11:44:53;;;;;;;;;;;;;;;;;;5029644;28;5263;-58
2024/03/27 11:47:19;;;;;;;;;;;;;;;;;;5020574;28;4191;-61
2024/03/27 11:49:44;;;;;;;;;;;;;;;;;;5022423;28;5218;-61
2024/03/27 11:52:10;;;;;;;;;;;;;;;;;;5029879;28;5061;-63
2024/03/27 11:54:35;;;;;;;;;;;;;;;;;;5021405;28;4903;-60
2024/03/27 11:57:01;;;;;;;;;;;;;;;;;;5021510;28;4734;-60
2024/03/27 11:59:26;;;;;;;;;;;;;;;;;;5023373;28;3607;-60
2024/03/27 12:01:52;;;;;;;;;;;;;;;;;;5026333;28;4981;-61
2024/03/27 12:04:17;;;;;;;;;;;;;;;;;;5030269;28;4806;-61
2024/03/27 12:06:43;;;;;;;;;;;;;;;;;;5022784;28;5168;-62
2024/03/27 12:09:14;;;;;;;;;;;;;;;;;;5028713;28;5049;-61
2024/03/27 12:11:40;;;;;;;;;;;;;;;;;;5029352;28;5017;-66
2024/03/27 12:14:05;;;;;;;;;;;;;;;;;;5023135;28;3472;-63
2024/03/27 12:16:30;;;;;;;;;;;;;;;;;;5027413;28;4690;-65
2024/03/27 12:18:56;;;;;;;;;;;;;;;;;;5023397;28;4798;-65
2024/03/27 12:21:21;;;;;;;;;;;;;;;;;;5023469;28;5243;-62
2024/03/27 12:23:46;;;;;;;;;;;;;;;;;;5035406;28;5091;-60
2024/03/27 12:26:12;;;;;;;;;;;;;;;;;;5027772;28;1243;-62
2024/03/27 12:28:38;;;;;;;;;;;;;;;;;;5017011;28;5190;-63
2024/03/27 12:31:04;;;;;;;;;;;;;;;;;;5028878;28;4564;-65
2024/03/27 12:33:29;;;;;;;;;;;;;;;;;;5026543;28;4688;-66
2024/03/27 12:35:55;;;;;;;;;;;;;;;;;;5027680;28;5295;-60
2024/03/27 12:38:20;;;;;;;;;;;;;;;;;;5020082;28;3444;-63
2024/03/27 12:40:45;;;;;;;;;;;;;;;;;;5022328;28;5011;-62
2024/03/27 12:43:11;;;;;;;;;;;;;;;;;;5025893;28;4544;-66
2024/03/27 12:45:36;;;;;;;;;;;;;;;;;;5026455;28;4758;-69
2024/03/27 12:48:01;;;;;;;;;;;;;;;;;;5033143;28;5143;-69
2024/03/27 12:50:27;;;;;;;;;;;;;;;;;;5025926;28;3542;-70
2024/03/27 12:52:52;;;;;;;;;;;;;;;;;;5024368;28;4915;-68
2024/03/27 12:55:17;;;;;;;;;;;;;;;;;;5029768;28;4667;-68
2024/03/27 12:57:43;;;;;;;;;;;;;;;;;;5029217;28;4771;-72
2024/03/27 13:00:09;;;;;;;;;;;;;;;;;;5025700;28;5207;-68
2024/03/27 13:02:35;;;;;;;;;;;;;;;;;;5027849;28;3437;-62
2024/03/27 13:05:00;;;;;;;;;;;;;;;;;;5019474;28;5345;-60
2024/03/27 13:07:26;;;;;;;;;;;;;;;;;;5025927;28;4621;-60
2024/03/27 13:09:51;;;;;;;;;;;;;;;;;;5035436;28;5318;-59
2024/03/27 13:12:16;;;;;;;;;;;;;;;;;;5026127;28;4997;-59
2024/03/27 13:14:42;;;;;;;;;;;;;;;;;;5024012;28;4492;-59
2024/03/27 13:17:07;;;;;;;;;;;;;;;;;;5027116;28;3219;-59
2024/03/27 13:19:32;;;;;;;;;;;;;;;;;;5018675;28;5564;-59
2024/03/27 13:21:58;;;;;;;;;;;;;;;;;;5024842;28;5023;-60
2024/03/27 13:24:23;;;;;;;;;;;;;;;;;;5028076;28;4562;-60
2024/03/27 13:26:48;;;;;;;;;;;;;;;;;;5025813;28;5073;-59
2024/03/27 13:29:14;;;;;;;;;;;;;;;;;;5022913;28;3257;-59
2024/03/27 13:31:39;;;;;;;;;;;;;;;;;;5024308;28;5083;-59
2024/03/27 13:34:05;;;;;;;;;;;;;;;;;;5022749;28;5002;-59
2024/03/27 13:36:30;;;;;;;;;;;;;;;;;;5023550;28;4662;-59
2024/03/27 13:38:55;;;;;;;;;;;;;;;;;;5017367;28;5296;-59
2024/03/27 13:41:21;;;;;;;;;;;;;;;;;;5028295;28;1314;-59
2024/03/27 13:43:46;;;;;;;;;;;;;;;;;;5027971;28;4456;-59
2024/03/27 13:46:12;;;;;;;;;;;;;;;;;;5023809;28;4904;-59
2024/03/27 13:48:37;;;;;;;;;;;;;;;;;;5034191;28;4760;-64
2024/03/27 13:51:02;;;;;;;;;;;;;;;;;;5025726;28;5131;-60
2024/03/27 13:53:28;;;;;;;;;;;;;;;;;;5022945;28;3462;-61
2024/03/27 13:55:54;;;;;;;;;;;;;;;;;;5015368;28;4717;-60
2024/03/27 13:58:20;;;;;;;;;;;;;;;;;;5020858;28;4967;-61
2024/03/27 14:00:45;;;;;;;;;;;;;;;;;;5028533;28;4750;-63
2024/03/27 14:03:10;;;;;;;;;;;;;;;;;;5020989;28;4962;-64
2024/03/27 14:05:36;;;;;;;;;;;;;;;;;;5023144;28;1105;-64
2024/03/27 14:08:04;;;;;;;;;;;;;;;;;;5023187;28;4907;-61
2024/03/27 14:10:30;;;;;;;;;;;;;;;;;;5028117;28;4790;-61
2024/03/27 14:12:55;;;;;;;;;;;;;;;;;;5023544;28;5181;-61
2024/03/27 14:15:20;;;;;;;;;;;;;;;;;;5028399;28;5144;-61
2024/03/27 14:17:46;;;;;;;;;;;;;;;;;;5027057;28;4532;-63
2024/03/27 14:20:11;;;;;;;;;;;;;;;;;;5026020;28;3460;-60
2024/03/27 14:22:36;;;;;;;;;;;;;;;;;;5024520;28;5034;-59
2024/03/27 14:25:04;;;;;;;;;;;;;;;;;;5022787;28;4782;-61
2024/03/27 14:27:30;;;;;;;;;;;;;;;;;;5020970;28;5184;-60
2024/03/27 14:29:55;;;;;;;;;;;;;;;;;;5021755;28;4716;-60
2024/03/27 14:32:21;;;;;;;;;;;;;;;;;;5028539;28;1113;-61
2024/03/27 14:34:46;;;;;;;;;;;;;;;;;;5027735;28;5043;-61
2024/03/27 14:37:11;;;;;;;;;;;;;;;;;;5025947;28;5071;-61
2024/03/27 14:39:37;;;;;;;;;;;;;;;;;;5023822;28;5109;-63
2024/03/27 14:42:02;;;;;;;;;;;;;;;;;;5024358;28;5128;-63
2024/03/27 14:44:28;;;;;;;;;;;;;;;;;;5024718;28;1136;-63
2024/03/27 14:46:53;;;;;;;;;;;;;;;;;;5021452;28;4508;-63
2024/03/27 14:49:19;;;;;;;;;;;;;;;;;;5023340;28;5372;-60
2024/03/27 14:51:44;;;;;;;;;;;;;;;;;;5023177;28;4775;-60
2024/03/27 14:54:09;;;;;;;;;;;;;;;;;;5026353;28;4625;-60
2024/03/27 14:56:35;;;;;;;;;;;;;;;;;;5023408;28;1910;-61
2024/03/27 14:59:00;;;;;;;;;;;;;;;;;;5022185;28;4551;-61
2024/03/27 15:01:26;;;;;;;;;;;;;;;;;;5023892;28;4897;-61
2024/03/27 15:03:51;;;;;;;;;;;;;;;;;;5016875;28;4521;-61
2024/03/27 15:06:16;;;;;;;;;;;;;;;;;;5023594;28;4537;-59
2024/03/27 15:08:42;;;;;;;;;;;;;;;;;;5024302;28;5080;-62
2024/03/27 15:11:07;;;;;;;;;;;;;;;;;;5024134;28;3374;-64
2024/03/27 15:13:33;;;;;;;;;;;;;;;;;;5023041;28;4660;-64
2024/03/27 15:15:58;;;;;;;;;;;;;;;;;;5027445;28;4739;-66
2024/03/27 15:18:23;;;;;;;;;;;;;;;;;;5025979;28;5151;-64
2024/03/27 15:20:49;;;;;;;;;;;;;;;;;;5023171;28;4553;-64
2024/03/27 15:23:14;;;;;;;;;;;;;;;;;;5022193;28;3441;-63
2024/03/27 15:25:39;;;;;;;;;;;;;;;;;;5017583;28;5081;-63
2024/03/27 15:28:07;;;;;;;;;;;;;;;;;;5021834;28;5177;-64
2024/03/27 15:30:32;;;;;;;;;;;;;;;;;;5016861;28;5033;-60
2024/03/27 15:32:57;;;;;;;;;;;;;;;;;;5033444;28;4948;-60
2024/03/27 15:35:23;;;;;;;;;;;;;;;;;;5019150;28;3694;-61
2024/03/27 15:37:48;;;;;;;;;;;;;;;;;;5021788;28;5027;-62
2024/03/27 15:40:17;;;;;;;;;;;;;;;;;;5023470;28;5081;-62
2024/03/27 15:42:42;;;;;;;;;;;;;;;;;;5023851;28;4651;-61
2024/03/27 15:45:08;;;;;;;;;;;;;;;;;;5034000;28;5068;-66
2024/03/27 15:47:33;;;;;;;;;;;;;;;;;;5020728;28;3311;-60
2024/03/27 15:50:00;;;;;;;;;;;;;;;;;;5020092;28;4666;-60
2024/03/27 15:52:25;;;;;;;;;;;;;;;;;;5019285;28;5252;-60
2024/03/27 15:54:51;;;;;;;;;;;;;;;;;;5024222;28;4690;-63
2024/03/27 15:57:16;;;;;;;;;;;;;;;;;;5025011;28;5380;-63
2024/03/27 15:59:41;;;;;;;;;;;;;;;;;;5025514;28;5124;-62
2024/03/27 16:02:07;;;;;;;;;;;;;;;;;;5019093;28;3451;-61
2024/03/27 16:04:32;;;;;;;;;;;;;;;;;;5030582;28;4986;-64
2024/03/27 16:06:57;;;;;;;;;;;;;;;;;;5024960;28;5117;-62
2024/03/27 16:09:23;;;;;;;;;;;;;;;;;;5030170;28;5095;-60
2024/03/27 16:11:48;;;;;;;;;;;;;;;;;;5020231;28;5296;-60
2024/03/27 16:14:13;;;;;;;;;;;;;;;;;;5021538;28;3473;-60
2024/03/27 16:16:39;;;;;;;;;;;;;;;;;;5027167;28;5167;-60
2024/03/27 16:19:04;;;;;;;;;;;;;;;;;;5023666;28;4567;-61
2024/03/27 16:21:29;;;;;;;;;;;;;;;;;;5025570;28;5081;-62
2024/03/27 16:23:55;;;;;;;;;;;;;;;;;;5021656;28;4749;-62
2024/03/27 16:26:20;;;;;;;;;;;;;;;;;;5026838;28;3274;-62
2024/03/27 16:28:46;;;;;;;;;;;;;;;;;;5022258;28;4664;-66
2024/03/27 16:31:12;;;;;;;;;;;;;;;;;;5023090;28;4496;-67
2024/03/27 16:33:37;;;;;;;;;;;;;;;;;;5030189;28;4568;-66
2024/03/27 16:36:02;;;;;;;;;;;;;;;;;;5029485;28;5052;-65
2024/03/27 16:38:28;;;;;;;;;;;;;;;;;;5012722;28;3864;-68
2024/03/27 16:40:53;;;;;;;;;;;;;;;;;;5023781;28;4791;-67
2024/03/27 16:43:18;;;;;;;;;;;;;;;;;;5021917;28;4460;-69
2024/03/27 16:45:44;;;;;;;;;;;;;;;;;;5020977;28;5019;-64
2024/03/27 16:48:09;;;;;;;;;;;;;;;;;;5021855;28;4532;-67
2024/03/27 16:50:37;;;;;;;;;;;;;;;;;;5023093;28;1266;-70